createdAt,value
2019-03-18T00:01:28.204Z,1.17
2019-03-18T00:04:15.837Z,1.03
2019-03-18T00:07:03.567Z,2.90
2019-03-18T00:09:51.091Z,1.17
2019-03-18T00:12:38.515Z,2.63
2019-03-18T00:15:26.145Z,1.73
2019-03-18T00:18:13.058Z,1.20
2019-03-18T00:21:00.684Z,1.53
2019-03-18T00:23:48.415Z,1.40
2019-03-18T00:26:35.760Z,1.03
2019-03-18T00:29:23.162Z,2.00
2019-03-18T00:32:10.894Z,2.30
2019-03-18T00:34:58.319Z,1.33
2019-03-18T00:37:45.853Z,1.93
2019-03-18T00:40:33.373Z,2.50
2019-03-18T00:43:21.107Z,1.10
2019-03-18T00:46:08.734Z,1.83
2019-03-18T00:48:56.058Z,1.67
2019-03-18T00:51:43.590Z,1.47
2019-03-18T00:54:31.416Z,3.07
2019-03-18T00:57:19.454Z,1.47
2019-03-18T01:00:09.743Z,1.37
2019-03-18T01:02:57.271Z,1.17
2019-03-18T01:05:44.699Z,1.47
2019-03-18T01:08:31.913Z,1.90
2019-03-18T01:11:19.342Z,2.80
2019-03-18T01:14:06.769Z,1.57
2019-03-18T01:16:53.958Z,1.20
2019-03-18T01:19:41.719Z,2.03
2019-03-18T01:22:29.242Z,2.17
2019-03-18T01:25:16.869Z,1.97
2019-03-18T01:28:04.403Z,3.40
2019-03-18T01:30:51.780Z,1.67
2019-03-18T01:33:39.446Z,2.27
2019-03-18T01:36:27.076Z,2.40
2019-03-18T01:39:15.015Z,1.40
2019-03-18T01:42:02.538Z,2.83
2019-03-18T01:44:50.375Z,1.70
2019-03-18T01:47:37.798Z,3.23
2019-03-18T01:50:25.732Z,1.73
2019-03-18T01:53:13.771Z,3.13
2019-03-18T01:56:01.193Z,2.43
2019-03-18T01:58:48.925Z,1.77
2019-03-18T02:01:36.454Z,1.53
2019-03-18T02:04:23.877Z,1.37
2019-03-18T02:07:10.993Z,5.63
2019-03-18T02:09:58.828Z,1.57
2019-03-18T02:12:46.046Z,2.57
2019-03-18T02:15:33.778Z,1.70
2019-03-18T02:18:20.999Z,1.80
2019-03-18T02:21:08.832Z,1.83
2019-03-18T02:23:56.566Z,2.03
2019-03-18T02:26:44.807Z,1.70
2019-03-18T02:29:32.538Z,1.73
2019-03-18T02:32:20.269Z,1.67
2019-03-18T02:35:08.208Z,2.23
2019-03-18T02:37:55.425Z,1.73
2019-03-18T02:40:43.361Z,2.03
2019-03-18T02:43:30.889Z,2.63
2019-03-18T02:46:18.518Z,1.67
2019-03-18T02:49:06.263Z,2.20
2019-03-18T02:51:54.287Z,1.47
2019-03-18T02:54:41.922Z,2.73
2019-03-18T02:57:29.749Z,1.57
2019-03-18T03:00:17.298Z,3.17
2019-03-18T03:03:05.413Z,3.10
2019-03-18T03:05:53.050Z,2.93
2019-03-18T03:08:40.573Z,1.40
2019-03-18T03:11:28.000Z,1.60
2019-03-18T03:14:15.421Z,2.10
2019-03-18T03:17:02.906Z,1.50
2019-03-18T03:19:50.575Z,2.37
2019-03-18T03:22:38.702Z,2.23
2019-03-18T03:25:25.949Z,2.30
2019-03-18T03:28:13.359Z,2.20
2019-03-18T03:31:01.025Z,1.90
2019-03-18T03:33:48.593Z,4.33
2019-03-18T03:36:35.741Z,4.03
2019-03-18T03:39:22.951Z,3.57
2019-03-18T03:42:10.579Z,2.73
2019-03-18T03:44:58.006Z,3.20
2019-03-18T03:47:45.765Z,5.53
2019-03-18T03:50:33.673Z,2.77
2019-03-18T03:53:21.404Z,3.13
2019-03-18T03:56:09.341Z,2.73
2019-03-18T03:58:57.143Z,5.77
2019-03-18T04:01:44.600Z,2.27
2019-03-18T04:04:32.675Z,5.73
2019-03-18T04:07:20.067Z,3.63
2019-03-18T04:10:10.155Z,5.37
2019-03-18T04:12:57.574Z,2.00
2019-03-18T04:15:45.102Z,3.47
2019-03-18T04:18:32.421Z,2.30
2019-03-18T04:21:19.744Z,2.83
2019-03-18T04:24:07.175Z,2.60
2019-03-18T04:26:54.897Z,5.57
2019-03-18T04:29:42.216Z,2.23
2019-03-18T04:32:29.881Z,2.63
2019-03-18T04:35:17.493Z,3.43
2019-03-18T04:38:04.696Z,3.90
2019-03-18T04:40:52.120Z,3.30
2019-03-18T04:43:40.671Z,3.77
2019-03-18T04:46:27.992Z,2.63
2019-03-18T04:49:15.420Z,2.40
2019-03-18T04:52:02.843Z,3.70
2019-03-18T04:54:50.058Z,3.07
2019-03-18T04:57:37.481Z,3.93
2019-03-18T05:00:24.804Z,4.77
2019-03-18T05:03:12.007Z,2.43
2019-03-18T05:05:59.241Z,4.80
2019-03-18T05:08:46.972Z,3.60
2019-03-18T05:11:34.397Z,4.87
2019-03-18T05:14:21.924Z,3.80
2019-03-18T05:17:09.368Z,4.50
2019-03-18T05:19:56.569Z,4.67
2019-03-18T05:22:44.197Z,3.23
2019-03-18T05:25:32.134Z,4.27
2019-03-18T05:28:19.660Z,5.60
2019-03-18T05:31:07.082Z,5.60
2019-03-18T05:33:54.405Z,6.00
2019-03-18T05:36:42.341Z,8.00
2019-03-18T05:39:29.563Z,5.43
2019-03-18T05:42:17.087Z,4.13
2019-03-18T05:45:05.744Z,4.23
2019-03-18T05:47:53.369Z,6.10
2019-03-18T05:50:40.796Z,5.83
2019-03-18T05:53:28.323Z,4.27
2019-03-18T05:56:16.562Z,4.90
2019-03-18T05:59:03.886Z,4.77
2019-03-18T06:01:51.626Z,4.07
2019-03-18T06:04:39.140Z,4.33
2019-03-18T06:07:26.974Z,3.77
2019-03-18T06:10:14.605Z,5.20
2019-03-18T06:13:02.030Z,4.80
2019-03-18T06:15:49.658Z,4.47
2019-03-18T06:18:37.180Z,3.97
2019-03-18T06:21:25.664Z,7.30
2019-03-18T06:24:13.071Z,4.20
2019-03-18T06:27:01.098Z,4.13
2019-03-18T06:29:48.581Z,4.10
2019-03-18T06:32:36.067Z,3.13
2019-03-18T06:35:23.775Z,3.30
2019-03-18T06:38:11.817Z,4.57
2019-03-18T06:40:59.342Z,4.37
2019-03-18T06:43:46.766Z,4.57
2019-03-18T06:46:34.085Z,5.07
2019-03-18T06:49:21.512Z,3.93
2019-03-18T06:52:09.035Z,3.90
2019-03-18T06:54:56.562Z,4.50
2019-03-18T06:57:44.016Z,4.20
2019-03-18T07:00:31.412Z,3.67
2019-03-18T07:03:18.937Z,3.40
2019-03-18T07:06:06.569Z,5.33
2019-03-18T07:08:57.173Z,4.07
2019-03-18T07:11:45.684Z,3.10
2019-03-18T07:14:34.572Z,5.63
2019-03-18T07:17:26.344Z,4.13
2019-03-18T07:20:14.761Z,3.10
2019-03-18T07:23:02.169Z,7.37
2019-03-18T07:25:50.405Z,3.10
2019-03-18T07:28:37.739Z,4.67
2019-03-18T07:31:25.366Z,5.53
2019-03-18T07:34:13.096Z,4.33
2019-03-18T07:37:01.523Z,3.93
2019-03-18T07:39:49.070Z,4.97
2019-03-18T07:42:36.807Z,3.93
2019-03-18T07:45:24.429Z,3.20
2019-03-18T07:48:12.636Z,2.53
2019-03-18T07:51:00.203Z,5.40
2019-03-18T07:53:48.238Z,3.63
2019-03-18T07:56:35.666Z,3.17
2019-03-18T07:59:23.204Z,3.27
2019-03-18T08:02:10.615Z,4.63
2019-03-18T08:04:58.036Z,5.53
2019-03-18T08:07:45.255Z,3.23
2019-03-18T08:10:32.590Z,3.80
2019-03-18T08:13:19.901Z,3.87
2019-03-18T08:16:07.326Z,2.53
2019-03-18T08:18:54.850Z,4.43
2019-03-18T08:21:43.416Z,6.87
2019-03-18T08:24:31.139Z,3.27
2019-03-18T08:27:18.969Z,3.73
2019-03-18T08:30:14.808Z,3.50
2019-03-18T08:33:02.014Z,4.70
2019-03-18T08:35:49.429Z,4.03
2019-03-18T08:38:36.956Z,3.90
2019-03-18T08:41:24.484Z,3.33
2019-03-18T08:44:12.016Z,3.80
2019-03-18T08:46:59.232Z,3.90
2019-03-18T08:49:46.757Z,4.93
2019-03-18T08:52:33.876Z,3.87
2019-03-18T08:55:21.808Z,4.43
2019-03-18T08:58:09.550Z,2.50
2019-03-18T09:00:56.965Z,3.10
2019-03-18T09:03:44.798Z,3.33
2019-03-18T09:06:32.655Z,3.10
2019-03-18T09:09:20.162Z,3.87
2019-03-18T09:12:07.684Z,3.63
2019-03-18T09:14:55.334Z,2.70
2019-03-18T09:17:42.940Z,2.13
2019-03-18T09:20:30.202Z,3.60
2019-03-18T09:23:17.687Z,3.73
2019-03-18T09:26:05.218Z,3.43
2019-03-18T09:28:53.048Z,2.40
2019-03-18T09:31:40.172Z,2.23
2019-03-18T09:34:27.704Z,3.63
2019-03-18T09:37:15.476Z,3.17
2019-03-18T09:40:02.932Z,2.97
2019-03-18T09:42:49.789Z,2.50
2019-03-18T09:45:36.911Z,2.47
2019-03-18T09:48:23.994Z,4.07
2019-03-18T09:51:11.315Z,3.00
2019-03-18T09:53:58.840Z,3.77
2019-03-18T09:56:46.470Z,4.13
2019-03-18T09:59:34.097Z,2.83
2019-03-18T10:02:21.725Z,3.10
2019-03-18T10:05:09.254Z,2.63
2019-03-18T10:07:56.271Z,2.30
2019-03-18T10:10:44.001Z,2.27
2019-03-18T10:13:31.525Z,1.80
2019-03-18T10:16:18.643Z,3.73
2019-03-18T10:19:06.069Z,1.93
2019-03-18T10:21:54.209Z,2.60
2019-03-18T10:24:41.532Z,6.03
2019-03-18T10:27:29.056Z,4.30
2019-03-18T10:30:16.890Z,2.70
2019-03-18T10:33:05.035Z,3.90
2019-03-18T10:35:54.210Z,3.40
2019-03-18T10:38:41.835Z,5.23
2019-03-18T10:41:29.453Z,3.43
2019-03-18T10:44:16.884Z,2.50
2019-03-18T10:47:04.607Z,3.67
2019-03-18T10:49:52.339Z,2.77
2019-03-18T10:52:39.886Z,2.97
2019-03-18T10:55:28.128Z,5.13
2019-03-18T10:58:17.948Z,3.43
2019-03-18T11:01:04.803Z,3.03
2019-03-18T11:03:52.127Z,3.90
2019-03-18T11:06:40.167Z,2.93
2019-03-18T11:09:27.601Z,5.10
2019-03-18T11:12:15.317Z,4.37
2019-03-18T11:15:02.846Z,5.00
2019-03-18T11:17:55.490Z,4.10
2019-03-18T11:20:43.023Z,4.27
2019-03-18T11:23:30.645Z,4.27
2019-03-18T11:26:18.276Z,3.83
2019-03-18T11:29:06.518Z,4.57
2019-03-18T11:31:54.615Z,4.70
2019-03-18T11:34:42.186Z,2.60
2019-03-18T11:37:29.507Z,3.00
2019-03-18T11:40:19.166Z,1.50
2019-03-18T11:43:07.025Z,1.93
2019-03-18T11:45:54.762Z,2.20
2019-03-18T11:48:42.484Z,2.93
2019-03-18T11:51:29.906Z,3.33
2019-03-18T11:54:17.908Z,2.00
2019-03-18T11:57:06.290Z,1.67
2019-03-18T11:59:54.127Z,2.77
2019-03-18T12:02:41.752Z,3.10
2019-03-18T12:05:29.957Z,2.47
2019-03-18T12:08:17.011Z,2.13
2019-03-18T12:11:04.433Z,2.70
2019-03-18T12:13:52.164Z,3.00
2019-03-18T12:16:39.693Z,2.20
2019-03-18T12:19:27.321Z,2.67
2019-03-18T12:22:14.846Z,3.13
2019-03-18T12:25:02.580Z,5.20
2019-03-18T12:27:50.420Z,5.37
2019-03-18T12:30:38.271Z,5.63
2019-03-18T12:33:25.669Z,5.90
2019-03-18T12:36:13.096Z,3.93
2019-03-18T12:39:00.517Z,3.33
2019-03-18T12:41:48.151Z,3.03
2019-03-18T12:44:35.573Z,4.13
2019-03-18T12:47:23.096Z,3.47
2019-03-18T12:50:13.701Z,3.80
2019-03-18T12:53:01.224Z,2.60
2019-03-18T12:55:48.547Z,2.77
2019-03-18T12:58:36.685Z,3.77
2019-03-18T13:01:24.011Z,4.00
2019-03-18T13:04:11.432Z,4.13
2019-03-18T13:06:59.470Z,2.70
2019-03-18T13:09:47.101Z,3.67
2019-03-18T13:12:34.327Z,2.63
2019-03-18T13:15:22.153Z,6.60
2019-03-18T13:18:09.575Z,4.17
2019-03-18T13:21:07.397Z,2.83
2019-03-18T13:23:46.881Z,2.17
2019-03-18T13:26:34.415Z,1.93
2019-03-18T13:29:22.040Z,2.73
2019-03-18T13:32:09.466Z,3.77
2019-03-18T13:34:56.892Z,4.57
2019-03-18T13:37:44.209Z,3.50
2019-03-18T13:40:31.631Z,2.40
2019-03-18T13:43:19.268Z,3.47
2019-03-18T13:46:06.788Z,2.90
2019-03-18T13:48:54.521Z,2.83
2019-03-18T13:51:42.354Z,2.47
2019-03-18T13:54:32.252Z,3.33
2019-03-18T13:57:18.840Z,4.17
2019-03-18T14:00:13.125Z,4.83
2019-03-18T14:03:00.753Z,4.27
2019-03-18T14:05:48.485Z,3.63
2019-03-18T14:08:36.116Z,3.27
2019-03-18T14:11:23.639Z,3.80
2019-03-18T14:14:11.065Z,3.70
2019-03-18T14:16:58.427Z,4.30
2019-03-18T14:19:46.219Z,2.90
2019-03-18T14:22:33.643Z,4.20
2019-03-18T14:25:21.273Z,2.67
2019-03-18T14:28:08.699Z,2.90
2019-03-18T14:30:56.223Z,3.30
2019-03-18T14:33:43.956Z,3.20
2019-03-18T14:36:31.481Z,7.20
2019-03-18T14:39:18.915Z,6.17
2019-03-18T14:42:06.844Z,6.40
2019-03-18T14:44:54.573Z,3.03
2019-03-18T14:47:41.742Z,3.87
2019-03-18T14:50:29.221Z,3.03
2019-03-18T14:53:17.093Z,4.30
2019-03-18T14:56:05.236Z,43.37
2019-03-18T14:58:52.783Z,29.00
2019-03-18T15:01:40.348Z,7.80
2019-03-18T15:04:27.776Z,4.60
2019-03-18T15:07:15.716Z,5.63
2019-03-18T15:10:06.706Z,3.43
2019-03-18T15:12:53.652Z,3.73
2019-03-18T15:15:41.059Z,5.03
2019-03-18T15:18:28.993Z,4.87
2019-03-18T15:21:16.518Z,5.53
2019-03-18T15:24:16.173Z,4.47
2019-03-18T15:26:53.208Z,4.80
2019-03-18T15:29:41.962Z,3.93
2019-03-18T15:32:29.492Z,5.93
2019-03-18T15:35:17.956Z,3.53
2019-03-18T15:38:05.770Z,3.97
2019-03-18T15:40:52.888Z,4.93
2019-03-18T15:43:40.516Z,3.83
2019-03-18T15:46:27.745Z,8.83
2019-03-18T15:49:15.369Z,5.83
2019-03-18T15:52:11.116Z,5.10
2019-03-18T15:54:54.116Z,3.13
2019-03-18T15:57:42.145Z,2.37
2019-03-18T16:00:31.195Z,5.10
2019-03-18T16:03:18.950Z,6.30
2019-03-18T16:06:06.668Z,3.93
2019-03-18T16:08:54.096Z,4.87
2019-03-18T16:11:41.723Z,7.17
2019-03-18T16:14:28.945Z,4.80
2019-03-18T16:17:16.364Z,4.07
2019-03-18T16:20:03.781Z,5.23
2019-03-18T16:22:51.212Z,6.03
2019-03-18T16:25:39.355Z,5.77
2019-03-18T16:28:26.630Z,7.63
2019-03-18T16:31:14.407Z,5.63
2019-03-18T16:34:01.836Z,5.83
2019-03-18T16:36:49.360Z,5.77
2019-03-18T16:39:36.784Z,4.93
2019-03-18T16:42:24.206Z,4.37
2019-03-18T16:45:13.550Z,3.40
2019-03-18T16:48:00.698Z,3.63
2019-03-18T16:50:48.427Z,4.10
2019-03-18T16:53:36.167Z,5.30
2019-03-18T16:56:23.816Z,4.10
2019-03-18T16:59:12.237Z,3.73
2019-03-18T17:01:59.558Z,7.90
2019-03-18T17:04:47.096Z,3.30
2019-03-18T17:07:35.140Z,5.63
2019-03-18T17:10:22.960Z,3.90
2019-03-18T17:13:10.796Z,5.77
2019-03-18T17:15:58.527Z,5.30
2019-03-18T17:18:46.293Z,5.63
2019-03-18T17:21:33.686Z,6.23
2019-03-18T17:24:21.727Z,4.17
2019-03-18T17:27:09.658Z,4.50
2019-03-18T17:29:57.396Z,4.97
2019-03-18T17:32:45.127Z,5.50
2019-03-18T17:35:32.958Z,4.80
2019-03-18T17:38:20.890Z,9.07
2019-03-18T17:41:09.593Z,7.63
2019-03-18T17:43:57.398Z,22.37
2019-03-18T17:46:44.945Z,18.50
2019-03-18T17:49:32.550Z,11.47
2019-03-18T17:52:20.183Z,9.73
2019-03-18T17:55:09.024Z,9.73
2019-03-18T17:57:56.758Z,14.60
2019-03-18T18:00:52.375Z,8.03
2019-03-18T18:03:39.990Z,6.77
2019-03-18T18:06:29.679Z,5.20
2019-03-18T18:09:17.609Z,4.77
2019-03-18T18:12:07.359Z,7.83
2019-03-18T18:14:54.598Z,8.50
2019-03-18T18:17:42.434Z,7.07
2019-03-18T18:20:31.914Z,6.50
2019-03-18T18:23:19.129Z,6.93
2019-03-18T18:26:06.654Z,8.33
2019-03-18T18:28:54.500Z,7.73
2019-03-18T18:31:41.823Z,8.90
2019-03-18T18:34:29.439Z,6.93
2019-03-18T18:37:16.553Z,10.23
2019-03-18T18:40:07.338Z,8.03
2019-03-18T18:42:54.891Z,8.73
2019-03-18T18:45:42.719Z,7.63
2019-03-18T18:48:30.453Z,10.23
2019-03-18T18:51:17.984Z,7.40
2019-03-18T18:54:05.911Z,5.70
2019-03-18T18:56:53.708Z,6.23
2019-03-18T18:59:41.479Z,7.83
2019-03-18T19:02:29.210Z,7.23
2019-03-18T19:05:17.610Z,5.90
2019-03-18T19:08:05.813Z,9.47
2019-03-18T19:10:53.321Z,7.67
2019-03-18T19:13:40.441Z,7.03
2019-03-18T19:16:28.581Z,6.37
2019-03-18T19:19:16.417Z,5.93
2019-03-18T19:22:04.148Z,7.03
2019-03-18T19:24:51.776Z,5.03
2019-03-18T19:27:39.508Z,4.67
2019-03-18T19:30:27.241Z,6.17
2019-03-18T19:33:14.969Z,6.47
2019-03-18T19:36:02.515Z,6.27
2019-03-18T19:38:49.714Z,8.13
2019-03-18T19:41:37.138Z,5.70
2019-03-18T19:44:24.870Z,5.13
2019-03-18T19:47:12.399Z,4.77
2019-03-18T19:50:00.026Z,5.63
2019-03-18T19:52:47.961Z,5.63
2019-03-18T19:55:35.693Z,4.33
2019-03-18T19:58:23.538Z,5.60
2019-03-18T20:01:11.264Z,5.10
2019-03-18T20:03:59.816Z,4.60
2019-03-18T20:06:47.136Z,4.83
2019-03-18T20:09:34.556Z,6.60
2019-03-18T20:12:21.672Z,6.93
2019-03-18T20:15:11.761Z,8.20
2019-03-18T20:17:59.083Z,5.77
2019-03-18T20:20:46.708Z,5.93
2019-03-18T20:23:34.439Z,5.33
2019-03-18T20:26:21.761Z,5.67
2019-03-18T20:29:09.191Z,7.40
2019-03-18T20:31:56.610Z,8.90
2019-03-18T20:34:43.625Z,7.83
2019-03-18T20:37:31.460Z,4.63
2019-03-18T20:40:19.296Z,8.57
2019-03-18T20:43:06.613Z,6.73
2019-03-18T20:45:54.451Z,7.73
2019-03-18T20:48:41.973Z,7.10
2019-03-18T20:51:29.503Z,7.00
2019-03-18T20:54:16.621Z,4.63
2019-03-18T20:57:04.661Z,6.33
2019-03-18T20:59:52.432Z,10.07
2019-03-18T21:02:39.916Z,8.53
2019-03-18T21:05:27.650Z,8.00
2019-03-18T21:08:15.069Z,6.90
2019-03-18T21:11:03.005Z,5.43
2019-03-18T21:13:57.121Z,5.17
2019-03-18T21:16:39.800Z,6.60
2019-03-18T21:19:27.429Z,8.90
2019-03-18T21:22:15.160Z,7.03
2019-03-18T21:25:02.795Z,5.60
2019-03-18T21:27:51.648Z,8.47
2019-03-18T21:30:39.693Z,8.70
2019-03-18T21:33:27.423Z,6.37
2019-03-18T21:36:28.258Z,4.87
2019-03-18T21:39:07.486Z,7.13
2019-03-18T21:41:55.116Z,7.37
2019-03-18T21:44:42.541Z,7.77
2019-03-18T21:47:30.479Z,9.13
2019-03-18T21:50:18.006Z,7.60
2019-03-18T21:53:05.577Z,9.33
2019-03-18T21:55:53.880Z,7.77
2019-03-18T21:58:41.298Z,6.57
2019-03-18T22:01:28.724Z,10.03
2019-03-18T22:04:15.947Z,8.17
2019-03-18T22:07:04.802Z,9.80
2019-03-18T22:09:52.648Z,5.90
2019-03-18T22:12:39.853Z,8.83
2019-03-18T22:15:27.689Z,7.90
2019-03-18T22:18:15.315Z,9.43
2019-03-18T22:21:02.573Z,8.03
2019-03-18T22:23:50.269Z,7.27
2019-03-18T22:26:37.282Z,8.60
2019-03-18T22:29:24.939Z,10.37
2019-03-18T22:32:12.375Z,8.50
2019-03-18T22:35:00.326Z,8.97
2019-03-18T22:37:47.900Z,8.13
2019-03-18T22:40:36.059Z,7.13
2019-03-18T22:43:23.983Z,6.30
2019-03-18T22:46:11.399Z,8.50
2019-03-18T22:48:59.240Z,7.33
2019-03-18T22:51:46.964Z,7.70
2019-03-18T22:54:34.800Z,5.10
2019-03-18T22:57:22.530Z,7.87
2019-03-18T23:00:18.000Z,10.50
2019-03-18T23:03:05.798Z,5.43
2019-03-18T23:05:53.571Z,8.37
2019-03-18T23:08:41.011Z,7.13
2019-03-18T23:11:28.361Z,5.60
2019-03-18T23:14:15.846Z,8.37
2019-03-18T23:17:03.516Z,6.27
2019-03-18T23:19:51.043Z,7.93
2019-03-18T23:22:38.471Z,9.13
2019-03-18T23:25:25.786Z,10.47
2019-03-18T23:28:13.310Z,9.50
2019-03-18T23:31:01.147Z,11.27
2019-03-18T23:33:48.877Z,10.37
2019-03-18T23:36:36.301Z,10.67
2019-03-18T23:39:23.633Z,10.43
2019-03-18T23:42:10.723Z,11.13
2019-03-18T23:44:58.264Z,8.93
2019-03-18T23:47:45.791Z,7.90
2019-03-18T23:50:32.702Z,9.10
2019-03-18T23:53:19.720Z,11.07
2019-03-18T23:56:07.244Z,7.20
2019-03-18T23:58:54.672Z,9.77
